sensor_id;sensor_type;location;lat;lon;timestamp;pressure;altitude;pressure_sealevel;temperature;humidity
80164;BME280;70071;55.130;61.268;2023-12-28T00:01:42;96703.81;;;1.34;49.98
80164;BME280;70071;55.130;61.268;2023-12-28T00:04:08;96706.88;;;1.74;49.34
80164;BME280;70071;55.130;61.268;2023-12-28T00:06:34;96739.56;;;1.49;50.28
80164;BME280;70071;55.130;61.268;2023-12-28T00:09:01;96702.38;;;1.47;49.79
80164;BME280;70071;55.130;61.268;2023-12-28T00:11:27;96748.03;;;1.66;49.07
80164;BME280;70071;55.130;61.268;2023-12-28T00:13:53;96740.94;;;1.00;50.96
80164;BME280;70071;55.130;61.268;2023-12-28T00:16:20;96708.72;;;0.78;51.72
80164;BME280;70071;55.130;61.268;2023-12-28T00:18:46;96745.63;;;1.04;50.98
80164;BME280;70071;55.130;61.268;2023-12-28T00:21:12;96748.59;;;1.31;51.04
80164;BME280;70071;55.130;61.268;2023-12-28T00:23:38;96749.16;;;1.12;50.92
80164;BME280;70071;55.130;61.268;2023-12-28T00:26:04;96739.41;;;1.05;51.41
80164;BME280;70071;55.130;61.268;2023-12-28T00:28:30;96723.00;;;0.82;51.23
80164;BME280;70071;55.130;61.268;2023-12-28T00:30:56;96764.19;;;1.54;50.66
80164;BME280;70071;55.130;61.268;2023-12-28T00:33:22;96741.84;;;1.37;50.71
80164;BME280;70071;55.130;61.268;2023-12-28T00:35:48;96767.69;;;1.47;50.38
80164;BME280;70071;55.130;61.268;2023-12-28T00:38:14;96753.19;;;1.44;50.28
80164;BME280;70071;55.130;61.268;2023-12-28T00:40:39;96745.44;;;1.66;49.96
80164;BME280;70071;55.130;61.268;2023-12-28T00:43:05;96739.75;;;1.62;50.18
80164;BME280;70071;55.130;61.268;2023-12-28T00:45:32;96753.28;;;1.51;49.95
80164;BME280;70071;55.130;61.268;2023-12-28T00:47:58;96719.59;;;1.77;49.21
80164;BME280;70071;55.130;61.268;2023-12-28T00:50:24;96735.41;;;1.69;50.04
80164;BME280;70071;55.130;61.268;2023-12-28T00:52:53;96715.25;;;1.85;49.73
80164;BME280;70071;55.130;61.268;2023-12-28T00:55:19;96729.69;;;1.81;49.27
80164;BME280;70071;55.130;61.268;2023-12-28T00:57:45;96755.56;;;1.90;49.75
80164;BME280;70071;55.130;61.268;2023-12-28T01:00:11;96716.69;;;1.87;49.52
80164;BME280;70071;55.130;61.268;2023-12-28T01:02:37;96755.03;;;1.80;49.54
80164;BME280;70071;55.130;61.268;2023-12-28T01:05:03;96725.00;;;1.76;49.56
80164;BME280;70071;55.130;61.268;2023-12-28T01:07:30;96761.66;;;1.61;50.25
80164;BME280;70071;55.130;61.268;2023-12-28T01:09:56;96727.38;;;1.71;50.03
80164;BME280;70071;55.130;61.268;2023-12-28T01:12:22;96751.28;;;2.04;49.38
80164;BME280;70071;55.130;61.268;2023-12-28T01:14:48;96752.38;;;1.95;49.46
80164;BME280;70071;55.130;61.268;2023-12-28T01:17:14;96720.09;;;1.66;50.11
80164;BME280;70071;55.130;61.268;2023-12-28T01:19:39;96753.50;;;1.86;50.27
80164;BME280;70071;55.130;61.268;2023-12-28T01:22:05;96761.31;;;2.01;49.77
80164;BME280;70071;55.130;61.268;2023-12-28T01:24:32;96747.34;;;1.93;49.53
80164;BME280;70071;55.130;61.268;2023-12-28T01:27:01;96756.63;;;1.96;49.86
80164;BME280;70071;55.130;61.268;2023-12-28T01:29:28;96667.66;;;1.53;49.78
80164;BME280;70071;55.130;61.268;2023-12-28T01:31:54;96742.81;;;2.24;49.75
80164;BME280;70071;55.130;61.268;2023-12-28T01:34:19;96716.88;;;1.86;50.06
80164;BME280;70071;55.130;61.268;2023-12-28T01:36:46;96751.97;;;2.35;49.34
80164;BME280;70071;55.130;61.268;2023-12-28T01:46:41;96731.03;;;1.91;50.30
80164;BME280;70071;55.130;61.268;2023-12-28T01:49:07;96749.03;;;2.23;50.40
80164;BME280;70071;55.130;61.268;2023-12-28T01:51:34;96743.69;;;2.31;50.20
80164;BME280;70071;55.130;61.268;2023-12-28T01:54:00;96720.38;;;1.93;51.03
80164;BME280;70071;55.130;61.268;2023-12-28T01:56:27;96748.88;;;1.88;51.47
80164;BME280;70071;55.130;61.268;2023-12-28T01:58:53;96734.31;;;2.00;51.31
80164;BME280;70071;55.130;61.268;2023-12-28T02:01:20;96741.91;;;1.73;52.37
80164;BME280;70071;55.130;61.268;2023-12-28T02:03:46;96741.41;;;2.06;51.91
80164;BME280;70071;55.130;61.268;2023-12-28T02:06:13;96740.56;;;1.99;51.95
80164;BME280;70071;55.130;61.268;2023-12-28T02:08:43;96723.28;;;2.05;51.40
80164;BME280;70071;55.130;61.268;2023-12-28T02:11:09;96743.50;;;2.33;50.93
80164;BME280;70071;55.130;61.268;2023-12-28T02:13:35;96695.72;;;2.24;51.40
80164;BME280;70071;55.130;61.268;2023-12-28T02:16:12;96751.84;;;2.64;51.29
80164;BME280;70071;55.130;61.268;2023-12-28T02:18:44;96725.56;;;2.29;51.07
80164;BME280;70071;55.130;61.268;2023-12-28T02:21:13;96751.31;;;2.11;51.50
80164;BME280;70071;55.130;61.268;2023-12-28T02:23:46;96709.28;;;2.12;51.22
80164;BME280;70071;55.130;61.268;2023-12-28T02:26:12;96757.34;;;2.26;51.18
80164;BME280;70071;55.130;61.268;2023-12-28T02:28:38;96768.84;;;2.32;51.35
80164;BME280;70071;55.130;61.268;2023-12-28T02:31:06;96725.94;;;2.26;51.37
80164;BME280;70071;55.130;61.268;2023-12-28T02:33:38;96735.69;;;2.39;50.75
80164;BME280;70071;55.130;61.268;2023-12-28T02:36:11;96725.31;;;2.24;51.84
80164;BME280;70071;55.130;61.268;2023-12-28T02:38:39;96726.69;;;2.20;52.11
80164;BME280;70071;55.130;61.268;2023-12-28T02:41:06;96735.75;;;2.03;52.60
80164;BME280;70071;55.130;61.268;2023-12-28T02:43:34;96754.22;;;2.38;52.47
80164;BME280;70071;55.130;61.268;2023-12-28T02:46:00;96745.94;;;2.34;52.67
80164;BME280;70071;55.130;61.268;2023-12-28T02:48:26;96714.47;;;2.06;52.79
80164;BME280;70071;55.130;61.268;2023-12-28T02:50:52;96762.06;;;2.38;52.90
80164;BME280;70071;55.130;61.268;2023-12-28T02:53:18;96710.78;;;2.00;52.43
80164;BME280;70071;55.130;61.268;2023-12-28T02:55:44;96718.25;;;2.03;53.08
80164;BME280;70071;55.130;61.268;2023-12-28T02:58:10;96714.31;;;1.92;53.76
80164;BME280;70071;55.130;61.268;2023-12-28T03:00:36;96718.53;;;2.08;53.34
80164;BME280;70071;55.130;61.268;2023-12-28T03:03:02;96736.59;;;2.25;53.44
80164;BME280;70071;55.130;61.268;2023-12-28T03:05:28;96683.88;;;1.85;53.71
80164;BME280;70071;55.130;61.268;2023-12-28T03:07:54;96719.88;;;2.26;53.34
80164;BME280;70071;55.130;61.268;2023-12-28T03:10:21;96688.91;;;2.08;53.76
80164;BME280;70071;55.130;61.268;2023-12-28T03:12:47;96736.28;;;2.35;53.33
80164;BME280;70071;55.130;61.268;2023-12-28T03:15:13;96711.53;;;2.16;54.43
80164;BME280;70071;55.130;61.268;2023-12-28T03:17:40;96722.69;;;2.24;54.52
80164;BME280;70071;55.130;61.268;2023-12-28T03:20:06;96691.81;;;1.91;54.21
80164;BME280;70071;55.130;61.268;2023-12-28T03:22:32;96717.06;;;2.06;54.95
80164;BME280;70071;55.130;61.268;2023-12-28T03:24:58;96698.31;;;1.81;55.08
80164;BME280;70071;55.130;61.268;2023-12-28T03:27:24;96728.25;;;2.15;55.12
80164;BME280;70071;55.130;61.268;2023-12-28T03:29:50;96720.19;;;2.38;54.34
80164;BME280;70071;55.130;61.268;2023-12-28T03:32:16;96722.88;;;2.23;54.66
80164;BME280;70071;55.130;61.268;2023-12-28T03:34:42;96713.84;;;2.04;55.05
80164;BME280;70071;55.130;61.268;2023-12-28T03:37:08;96719.44;;;2.01;55.37
80164;BME280;70071;55.130;61.268;2023-12-28T03:39:37;96738.75;;;2.21;55.50
80164;BME280;70071;55.130;61.268;2023-12-28T03:42:03;96723.63;;;1.95;55.41
80164;BME280;70071;55.130;61.268;2023-12-28T03:44:29;96725.13;;;2.04;55.39
80164;BME280;70071;55.130;61.268;2023-12-28T03:46:55;96743.69;;;2.31;55.41
80164;BME280;70071;55.130;61.268;2023-12-28T03:49:21;96744.31;;;2.33;55.33
80164;BME280;70071;55.130;61.268;2023-12-28T03:51:49;96692.00;;;1.90;55.39
80164;BME280;70071;55.130;61.268;2023-12-28T03:54:16;96729.63;;;1.74;56.85
80164;BME280;70071;55.130;61.268;2023-12-28T03:56:42;96729.31;;;1.84;56.92
80164;BME280;70071;55.130;61.268;2023-12-28T03:59:09;96719.41;;;1.79;56.32
80164;BME280;70071;55.130;61.268;2023-12-28T04:01:35;96724.88;;;1.99;55.75
80164;BME280;70071;55.130;61.268;2023-12-28T04:04:01;96695.03;;;1.72;56.47
80164;BME280;70071;55.130;61.268;2023-12-28T04:06:28;96704.56;;;2.23;55.23
80164;BME280;70071;55.130;61.268;2023-12-28T04:08:54;96743.56;;;2.18;55.53
80164;BME280;70071;55.130;61.268;2023-12-28T04:11:20;96695.50;;;1.82;56.08
80164;BME280;70071;55.130;61.268;2023-12-28T04:13:46;96687.38;;;1.70;56.56
80164;BME280;70071;55.130;61.268;2023-12-28T04:16:15;96713.34;;;1.93;56.16
80164;BME280;70071;55.130;61.268;2023-12-28T04:18:42;96721.53;;;1.69;56.98
80164;BME280;70071;55.130;61.268;2023-12-28T04:21:14;96733.16;;;2.03;56.46
80164;BME280;70071;55.130;61.268;2023-12-28T04:23:41;96715.09;;;1.71;56.96
80164;BME280;70071;55.130;61.268;2023-12-28T04:26:08;96685.84;;;1.61;56.64
80164;BME280;70071;55.130;61.268;2023-12-28T04:28:34;96744.53;;;1.95;57.14
80164;BME280;70071;55.130;61.268;2023-12-28T04:31:05;96748.41;;;1.99;56.64
80164;BME280;70071;55.130;61.268;2023-12-28T04:33:32;96745.34;;;1.95;56.94
80164;BME280;70071;55.130;61.268;2023-12-28T04:36:02;96738.31;;;1.96;56.65
80164;BME280;70071;55.130;61.268;2023-12-28T04:38:30;96714.44;;;1.63;56.69
80164;BME280;70071;55.130;61.268;2023-12-28T04:40:57;96755.66;;;2.19;56.14
80164;BME280;70071;55.130;61.268;2023-12-28T04:43:23;96750.72;;;1.72;57.55
80164;BME280;70071;55.130;61.268;2023-12-28T04:45:50;96742.72;;;1.95;56.64
80164;BME280;70071;55.130;61.268;2023-12-28T04:48:16;96723.66;;;1.80;56.77
80164;BME280;70071;55.130;61.268;2023-12-28T04:50:47;96745.69;;;1.71;57.44
80164;BME280;70071;55.130;61.268;2023-12-28T04:53:15;96702.88;;;1.57;57.11
80164;BME280;70071;55.130;61.268;2023-12-28T04:55:41;96731.13;;;1.83;57.11
80164;BME280;70071;55.130;61.268;2023-12-28T04:58:07;96701.22;;;1.71;56.73
80164;BME280;70071;55.130;61.268;2023-12-28T05:00:33;96709.22;;;1.84;57.03
80164;BME280;70071;55.130;61.268;2023-12-28T05:02:59;96691.63;;;1.93;56.33
80164;BME280;70071;55.130;61.268;2023-12-28T05:05:25;96678.09;;;1.89;56.48
80164;BME280;70071;55.130;61.268;2023-12-28T05:07:51;96697.03;;;2.13;55.41
80164;BME280;70071;55.130;61.268;2023-12-28T05:10:17;96684.81;;;1.99;55.60
80164;BME280;70071;55.130;61.268;2023-12-28T05:12:44;96714.19;;;2.44;55.33
80164;BME280;70071;55.130;61.268;2023-12-28T05:15:10;96719.53;;;2.57;55.14
80164;BME280;70071;55.130;61.268;2023-12-28T05:17:37;96694.31;;;2.49;54.67
80164;BME280;70071;55.130;61.268;2023-12-28T05:20:03;96706.59;;;2.27;55.08
80164;BME280;70071;55.130;61.268;2023-12-28T05:22:31;96713.72;;;2.12;55.19
80164;BME280;70071;55.130;61.268;2023-12-28T05:24:57;96726.28;;;2.45;54.86
80164;BME280;70071;55.130;61.268;2023-12-28T05:27:23;96702.75;;;2.23;54.83
80164;BME280;70071;55.130;61.268;2023-12-28T05:29:49;96717.53;;;2.31;55.50
80164;BME280;70071;55.130;61.268;2023-12-28T05:32:16;96686.56;;;2.13;55.13
80164;BME280;70071;55.130;61.268;2023-12-28T05:34:42;96738.69;;;2.36;55.26
80164;BME280;70071;55.130;61.268;2023-12-28T05:37:08;96683.41;;;1.96;55.46
80164;BME280;70071;55.130;61.268;2023-12-28T05:39:34;96700.13;;;2.02;54.96
80164;BME280;70071;55.130;61.268;2023-12-28T05:42:00;96674.91;;;1.72;55.57
80164;BME280;70071;55.130;61.268;2023-12-28T05:44:26;96723.19;;;2.13;55.29
80164;BME280;70071;55.130;61.268;2023-12-28T05:46:52;96738.50;;;1.94;56.23
80164;BME280;70071;55.130;61.268;2023-12-28T05:49:18;96702.41;;;1.68;56.21
80164;BME280;70071;55.130;61.268;2023-12-28T05:52:03;96700.72;;;1.82;56.03
80164;BME280;70071;55.130;61.268;2023-12-28T05:54:29;96714.41;;;1.99;55.32
80164;BME280;70071;55.130;61.268;2023-12-28T05:56:55;96701.94;;;2.01;55.44
80164;BME280;70071;55.130;61.268;2023-12-28T05:59:21;96695.47;;;2.19;55.07
80164;BME280;70071;55.130;61.268;2023-12-28T06:01:48;96674.41;;;2.27;54.74
80164;BME280;70071;55.130;61.268;2023-12-28T06:04:14;96675.00;;;2.51;54.73
80164;BME280;70071;55.130;61.268;2023-12-28T06:06:40;96678.72;;;2.63;54.05
80164;BME280;70071;55.130;61.268;2023-12-28T06:09:06;96664.47;;;2.44;54.07
80164;BME280;70071;55.130;61.268;2023-12-28T06:11:32;96692.94;;;2.82;53.97
80164;BME280;70071;55.130;61.268;2023-12-28T06:13:57;96718.31;;;2.81;53.32
80164;BME280;70071;55.130;61.268;2023-12-28T06:16:23;96665.75;;;2.55;53.44
80164;BME280;70071;55.130;61.268;2023-12-28T06:18:51;96655.34;;;2.61;53.28
80164;BME280;70071;55.130;61.268;2023-12-28T06:21:17;96696.38;;;2.82;53.04
80164;BME280;70071;55.130;61.268;2023-12-28T06:23:43;96686.69;;;2.83;53.45
80164;BME280;70071;55.130;61.268;2023-12-28T06:26:09;96684.00;;;2.76;52.94
80164;BME280;70071;55.130;61.268;2023-12-28T06:28:35;96693.06;;;2.45;53.45
80164;BME280;70071;55.130;61.268;2023-12-28T06:31:01;96664.75;;;2.56;53.10
80164;BME280;70071;55.130;61.268;2023-12-28T06:33:29;96689.56;;;2.60;53.58
80164;BME280;70071;55.130;61.268;2023-12-28T06:35:55;96693.97;;;2.88;53.24
80164;BME280;70071;55.130;61.268;2023-12-28T06:38:24;96716.41;;;2.69;53.50
80164;BME280;70071;55.130;61.268;2023-12-28T06:40:51;96672.50;;;2.42;53.96
80164;BME280;70071;55.130;61.268;2023-12-28T06:43:17;96692.97;;;2.89;53.09
80164;BME280;70071;55.130;61.268;2023-12-28T06:45:43;96689.63;;;2.73;52.89
80164;BME280;70071;55.130;61.268;2023-12-28T06:48:10;96651.47;;;2.86;52.20
80164;BME280;70071;55.130;61.268;2023-12-28T06:50:35;96674.56;;;3.17;52.16
80164;BME280;70071;55.130;61.268;2023-12-28T06:53:01;96694.66;;;3.03;52.35
80164;BME280;70071;55.130;61.268;2023-12-28T06:55:27;96691.84;;;3.05;52.13
80164;BME280;70071;55.130;61.268;2023-12-28T06:57:53;96701.50;;;3.39;51.78
80164;BME280;70071;55.130;61.268;2023-12-28T07:00:19;96652.47;;;3.33;51.59
80164;BME280;70071;55.130;61.268;2023-12-28T07:02:45;96672.69;;;3.46;50.67
80164;BME280;70071;55.130;61.268;2023-12-28T07:05:11;96693.00;;;3.37;51.48
80164;BME280;70071;55.130;61.268;2023-12-28T07:07:39;96656.50;;;3.35;51.13
80164;BME280;70071;55.130;61.268;2023-12-28T07:10:06;96639.38;;;3.40;50.55
80164;BME280;70071;55.130;61.268;2023-12-28T07:12:32;96664.28;;;3.70;50.61
80164;BME280;70071;55.130;61.268;2023-12-28T07:14:58;96621.72;;;3.68;50.48
80164;BME280;70071;55.130;61.268;2023-12-28T07:17:24;96612.25;;;3.74;50.07
80164;BME280;70071;55.130;61.268;2023-12-28T07:19:50;96636.50;;;4.03;49.96
80164;BME280;70071;55.130;61.268;2023-12-28T07:22:15;96648.03;;;4.29;49.48
80164;BME280;70071;55.130;61.268;2023-12-28T07:24:41;96637.31;;;4.23;49.32
80164;BME280;70071;55.130;61.268;2023-12-28T07:29:52;96590.25;;;3.88;49.22
80164;BME280;70071;55.130;61.268;2023-12-28T07:32:18;96610.69;;;4.13;48.94
80164;BME280;70071;55.130;61.268;2023-12-28T07:34:45;96595.13;;;4.05;48.88
80164;BME280;70071;55.130;61.268;2023-12-28T07:37:11;96629.03;;;4.26;48.84
80164;BME280;70071;55.130;61.268;2023-12-28T07:39:37;96588.47;;;3.96;48.77
80164;BME280;70071;55.130;61.268;2023-12-28T07:42:03;96581.59;;;4.15;49.15
80164;BME280;70071;55.130;61.268;2023-12-28T07:44:29;96574.13;;;4.05;48.67
80164;BME280;70071;55.130;61.268;2023-12-28T07:46:55;96599.56;;;4.24;48.71
80164;BME280;70071;55.130;61.268;2023-12-28T07:49:21;96569.47;;;4.27;48.24
80164;BME280;70071;55.130;61.268;2023-12-28T07:51:47;96533.75;;;3.92;48.85
80164;BME280;70071;55.130;61.268;2023-12-28T07:54:14;96546.47;;;4.09;49.14
80164;BME280;70071;55.130;61.268;2023-12-28T07:56:40;96588.25;;;4.37;48.61
80164;BME280;70071;55.130;61.268;2023-12-28T07:59:06;96550.31;;;4.06;49.12
80164;BME280;70071;55.130;61.268;2023-12-28T08:01:35;96519.44;;;4.08;48.60
80164;BME280;70071;55.130;61.268;2023-12-28T08:04:01;96537.34;;;4.25;48.90
80164;BME280;70071;55.130;61.268;2023-12-28T08:06:28;96492.38;;;4.08;48.28
80164;BME280;70071;55.130;61.268;2023-12-28T08:08:56;96535.75;;;4.24;48.15
80164;BME280;70071;55.130;61.268;2023-12-28T08:11:24;96535.16;;;4.29;48.17
80164;BME280;70071;55.130;61.268;2023-12-28T08:13:50;96527.69;;;4.25;48.07
80164;BME280;70071;55.130;61.268;2023-12-28T08:16:16;96532.69;;;4.34;47.97
80164;BME280;70071;55.130;61.268;2023-12-28T08:18:42;96518.56;;;4.35;47.90
80164;BME280;70071;55.130;61.268;2023-12-28T08:21:08;96557.03;;;4.74;47.55
80164;BME280;70071;55.130;61.268;2023-12-28T08:23:34;96495.56;;;4.30;47.39
80164;BME280;70071;55.130;61.268;2023-12-28T08:26:19;96549.41;;;4.66;48.05
80164;BME280;70071;55.130;61.268;2023-12-28T08:28:45;96541.53;;;4.59;47.85
80164;BME280;70071;55.130;61.268;2023-12-28T08:31:11;96535.84;;;4.62;47.74
80164;BME280;70071;55.130;61.268;2023-12-28T08:33:39;96527.81;;;4.57;47.39
80164;BME280;70071;55.130;61.268;2023-12-28T08:36:11;96541.31;;;4.68;47.92
80164;BME280;70071;55.130;61.268;2023-12-28T08:38:38;96547.72;;;4.85;47.40
80164;BME280;70071;55.130;61.268;2023-12-28T08:41:04;96520.63;;;4.85;47.26
80164;BME280;70071;55.130;61.268;2023-12-28T08:43:36;96432.13;;;4.33;47.66
80164;BME280;70071;55.130;61.268;2023-12-28T08:46:02;96467.34;;;4.71;47.57
80164;BME280;70071;55.130;61.268;2023-12-28T08:48:28;96461.69;;;4.67;47.19
80164;BME280;70071;55.130;61.268;2023-12-28T08:50:54;96485.31;;;4.67;47.17
80164;BME280;70071;55.130;61.268;2023-12-28T08:53:20;96482.06;;;4.78;46.99
80164;BME280;70071;55.130;61.268;2023-12-28T08:55:46;96515.19;;;4.79;46.26
80164;BME280;70071;55.130;61.268;2023-12-28T08:58:12;96563.81;;;5.02;46.42
80164;BME280;70071;55.130;61.268;2023-12-28T09:00:38;96560.31;;;5.15;46.54
80164;BME280;70071;55.130;61.268;2023-12-28T09:03:04;96582.56;;;5.12;46.65
80164;BME280;70071;55.130;61.268;2023-12-28T09:05:30;96586.03;;;5.06;46.59
80164;BME280;70071;55.130;61.268;2023-12-28T09:07:56;96573.53;;;5.02;46.38
80164;BME280;70071;55.130;61.268;2023-12-28T09:10:22;96561.81;;;4.97;46.58
80164;BME280;70071;55.130;61.268;2023-12-28T09:12:49;96544.25;;;4.91;46.38
80164;BME280;70071;55.130;61.268;2023-12-28T09:15:15;96530.53;;;4.89;46.45
80164;BME280;70071;55.130;61.268;2023-12-28T09:17:41;96561.59;;;4.99;46.01
80164;BME280;70071;55.130;61.268;2023-12-28T09:22:51;96536.59;;;4.83;46.21
80164;BME280;70071;55.130;61.268;2023-12-28T09:25:21;96564.25;;;4.92;46.31
80164;BME280;70071;55.130;61.268;2023-12-28T09:27:47;96491.66;;;4.46;46.30
80164;BME280;70071;55.130;61.268;2023-12-28T09:30:13;96522.06;;;4.80;46.14
80164;BME280;70071;55.130;61.268;2023-12-28T09:32:39;96537.38;;;4.90;46.33
80164;BME280;70071;55.130;61.268;2023-12-28T09:35:06;96504.13;;;4.71;45.83
80164;BME280;70071;55.130;61.268;2023-12-28T09:37:32;96540.81;;;4.91;46.27
80164;BME280;70071;55.130;61.268;2023-12-28T09:39:58;96508.97;;;4.74;46.41
80164;BME280;70071;55.130;61.268;2023-12-28T09:42:26;96489.41;;;4.56;46.64
80164;BME280;70071;55.130;61.268;2023-12-28T09:44:54;96507.34;;;4.73;46.53
80164;BME280;70071;55.130;61.268;2023-12-28T09:47:21;96510.53;;;4.82;46.59
80164;BME280;70071;55.130;61.268;2023-12-28T09:49:46;96509.94;;;4.79;46.71
80164;BME280;70071;55.130;61.268;2023-12-28T09:52:12;96505.91;;;4.77;46.58
80164;BME280;70071;55.130;61.268;2023-12-28T09:54:38;96502.66;;;4.75;46.51
80164;BME280;70071;55.130;61.268;2023-12-28T09:57:08;96494.38;;;4.78;46.31
80164;BME280;70071;55.130;61.268;2023-12-28T09:59:34;96465.56;;;4.58;46.62
80164;BME280;70071;55.130;61.268;2023-12-28T10:02:01;96456.28;;;4.55;46.23
80164;BME280;70071;55.130;61.268;2023-12-28T10:04:28;96469.75;;;4.72;46.55
80164;BME280;70071;55.130;61.268;2023-12-28T10:06:57;96479.88;;;4.69;46.92
80164;BME280;70071;55.130;61.268;2023-12-28T10:09:23;96426.06;;;4.39;46.58
80164;BME280;70071;55.130;61.268;2023-12-28T10:11:53;96397.81;;;4.28;46.53
80164;BME280;70071;55.130;61.268;2023-12-28T10:14:20;96449.97;;;4.63;46.82
80164;BME280;70071;55.130;61.268;2023-12-28T10:16:47;96417.38;;;4.39;46.72
80164;BME280;70071;55.130;61.268;2023-12-28T10:19:14;96422.19;;;4.49;47.18
80164;BME280;70071;55.130;61.268;2023-12-28T10:21:40;96415.50;;;4.53;46.71
80164;BME280;70071;55.130;61.268;2023-12-28T10:24:06;96394.75;;;4.38;47.03
80164;BME280;70071;55.130;61.268;2023-12-28T10:26:33;96390.94;;;4.34;47.11
80164;BME280;70071;55.130;61.268;2023-12-28T10:28:59;96387.34;;;4.21;46.98
80164;BME280;70071;55.130;61.268;2023-12-28T10:31:27;96393.78;;;4.32;47.10
80164;BME280;70071;55.130;61.268;2023-12-28T10:33:53;96394.97;;;4.36;46.85
80164;BME280;70071;55.130;61.268;2023-12-28T10:36:19;96397.19;;;4.39;47.31
80164;BME280;70071;55.130;61.268;2023-12-28T10:38:48;96404.88;;;4.34;47.14
80164;BME280;70071;55.130;61.268;2023-12-28T10:41:18;96354.66;;;4.17;47.36
80164;BME280;70071;55.130;61.268;2023-12-28T10:46:31;96371.59;;;4.21;47.37
80164;BME280;70071;55.130;61.268;2023-12-28T10:48:59;96339.75;;;4.11;47.33
80164;BME280;70071;55.130;61.268;2023-12-28T10:51:26;96337.94;;;4.12;47.28
80164;BME280;70071;55.130;61.268;2023-12-28T10:56:50;96373.97;;;4.30;47.68
80164;BME280;70071;55.130;61.268;2023-12-28T11:01:59;96354.38;;;4.32;47.96
80164;BME280;70071;55.130;61.268;2023-12-28T11:04:48;96340.47;;;4.25;47.28
80164;BME280;70071;55.130;61.268;2023-12-28T11:07:17;96308.91;;;4.00;47.72
80164;BME280;70071;55.130;61.268;2023-12-28T11:09:43;96298.22;;;3.95;47.27
80164;BME280;70071;55.130;61.268;2023-12-28T11:12:10;96331.44;;;4.21;47.49
80164;BME280;70071;55.130;61.268;2023-12-28T11:14:39;96342.97;;;4.13;47.36
80164;BME280;70071;55.130;61.268;2023-12-28T11:17:09;96288.19;;;3.85;47.94
80164;BME280;70071;55.130;61.268;2023-12-28T11:19:35;96312.53;;;4.05;47.81
80164;BME280;70071;55.130;61.268;2023-12-28T11:22:03;96303.47;;;3.95;48.22
80164;BME280;70071;55.130;61.268;2023-12-28T11:24:30;96305.69;;;3.98;48.21
80164;BME280;70071;55.130;61.268;2023-12-28T11:26:56;96285.06;;;4.08;48.52
80164;BME280;70071;55.130;61.268;2023-12-28T11:29:24;96274.03;;;3.92;47.61
80164;BME280;70071;55.130;61.268;2023-12-28T11:31:59;96255.94;;;2.99;50.42
80164;BME280;70071;55.130;61.268;2023-12-28T11:34:29;96272.69;;;2.78;51.51
80164;BME280;70071;55.130;61.268;2023-12-28T11:36:57;96243.69;;;2.53;52.07
80164;BME280;70071;55.130;61.268;2023-12-28T11:39:33;96229.38;;;2.35;52.62
80164;BME280;70071;55.130;61.268;2023-12-28T11:42:03;96226.56;;;2.37;53.72
80164;BME280;70071;55.130;61.268;2023-12-28T11:44:30;96264.81;;;2.31;53.36
80164;BME280;70071;55.130;61.268;2023-12-28T11:46:56;96269.84;;;2.39;52.90
80164;BME280;70071;55.130;61.268;2023-12-28T11:49:26;96251.94;;;2.29;53.32
80164;BME280;70071;55.130;61.268;2023-12-28T11:51:57;96197.56;;;2.11;53.77
80164;BME280;70071;55.130;61.268;2023-12-28T11:54:25;96190.72;;;2.10;53.48
80164;BME280;70071;55.130;61.268;2023-12-28T11:56:54;96237.25;;;2.22;53.60
80164;BME280;70071;55.130;61.268;2023-12-28T11:59:20;96242.88;;;2.19;54.34
80164;BME280;70071;55.130;61.268;2023-12-28T12:01:50;96221.88;;;1.99;54.25
80164;BME280;70071;55.130;61.268;2023-12-28T12:04:18;96161.25;;;1.55;54.58
80164;BME280;70071;55.130;61.268;2023-12-28T12:06:47;96236.63;;;2.13;53.74
80164;BME280;70071;55.130;61.268;2023-12-28T12:09:17;96142.16;;;1.48;54.17
80164;BME280;70071;55.130;61.268;2023-12-28T12:11:48;96196.94;;;1.83;54.88
80164;BME280;70071;55.130;61.268;2023-12-28T12:14:15;96218.88;;;1.95;55.11
80164;BME280;70071;55.130;61.268;2023-12-28T12:16:41;96205.78;;;1.95;54.91
80164;BME280;70071;55.130;61.268;2023-12-28T12:19:07;96207.81;;;1.93;54.74
80164;BME280;70071;55.130;61.268;2023-12-28T12:21:34;96197.31;;;1.80;54.81
80164;BME280;70071;55.130;61.268;2023-12-28T12:24:00;96171.69;;;1.55;54.91
80164;BME280;70071;55.130;61.268;2023-12-28T12:26:28;96203.53;;;1.72;55.62
80164;BME280;70071;55.130;61.268;2023-12-28T12:28:56;96172.88;;;1.46;56.04
80164;BME280;70071;55.130;61.268;2023-12-28T12:31:24;96193.97;;;1.44;55.90
80164;BME280;70071;55.130;61.268;2023-12-28T12:33:50;96188.53;;;1.32;56.08
80164;BME280;70071;55.130;61.268;2023-12-28T12:36:17;96177.63;;;1.22;56.41
80164;BME280;70071;55.130;61.268;2023-12-28T12:38:43;96167.19;;;1.22;56.34
80164;BME280;70071;55.130;61.268;2023-12-28T12:41:12;96176.81;;;1.21;56.94
80164;BME280;70071;55.130;61.268;2023-12-28T12:43:40;96184.91;;;1.33;56.57
80164;BME280;70071;55.130;61.268;2023-12-28T12:46:07;96158.72;;;1.20;56.57
80164;BME280;70071;55.130;61.268;2023-12-28T12:48:33;96144.41;;;1.02;56.62
80164;BME280;70071;55.130;61.268;2023-12-28T12:51:02;96206.44;;;1.42;56.33
80164;BME280;70071;55.130;61.268;2023-12-28T12:53:35;96172.53;;;1.07;56.59
80164;BME280;70071;55.130;61.268;2023-12-28T12:56:03;96213.19;;;1.23;56.35
80164;BME280;70071;55.130;61.268;2023-12-28T12:58:49;96214.88;;;1.37;55.97
80164;BME280;70071;55.130;61.268;2023-12-28T13:01:18;96170.13;;;1.05;56.53
80164;BME280;70071;55.130;61.268;2023-12-28T13:03:45;96200.69;;;1.18;56.60
80164;BME280;70071;55.130;61.268;2023-12-28T13:06:12;96171.69;;;1.00;56.86
80164;BME280;70071;55.130;61.268;2023-12-28T13:08:38;96209.38;;;1.26;56.64
80164;BME280;70071;55.130;61.268;2023-12-28T13:11:04;96169.53;;;1.10;56.88
80164;BME280;70071;55.130;61.268;2023-12-28T13:13:33;96121.00;;;0.81;56.69
80164;BME280;70071;55.130;61.268;2023-12-28T13:15:59;96177.38;;;1.17;57.00
80164;BME280;70071;55.130;61.268;2023-12-28T13:18:25;96130.22;;;0.83;57.55
80164;BME280;70071;55.130;61.268;2023-12-28T13:20:51;96144.13;;;0.91;57.75